Time;durP1;ratioP1;P1;durP2;ratioP2;P2;SDS_P1;SDS_P2;PMS_P1;PMS_P2;Temp;Humidity;BMP_temperature;BMP_pressure;BME280_temperature;BME280_humidity;BME280_pressure;Samples;Min_cycle;Max_cycle;Signal;HPM_P1;HPM_P2
2022/03/23 00:01:50;;;;;;;14.40;7.23;;;;;;;5.96;60.32;100784.19;5072697;28;20660;-60
2022/03/23 00:04:16;;;;;;;13.97;7.03;;;;;;;5.93;60.57;100781.81;5072909;28;20330;-60
2022/03/23 00:06:44;;;;;;;16.27;8.30;;;;;;;5.93;60.74;100787.94;5072978;28;20232;-60
2022/03/23 00:09:14;;;;;;;15.13;8.30;;;;;;;5.87;60.44;100782.38;5072925;28;20223;-60
2022/03/23 00:11:41;;;;;;;15.70;8.00;;;;;;;5.72;60.71;100782.69;5072469;28;20198;-60
2022/03/23 00:14:09;;;;;;;14.47;8.10;;;;;;;5.70;61.52;100779.38;5072931;28;20196;-60
2022/03/23 00:16:37;;;;;;;17.03;7.87;;;;;;;5.75;61.51;100774.50;5072929;28;20188;-60
2022/03/23 00:19:04;;;;;;;17.53;8.73;;;;;;;5.73;61.51;100781.72;5073185;28;20535;-60
2022/03/23 00:21:30;;;;;;;16.20;8.53;;;;;;;5.61;62.26;100777.50;5072627;28;20196;-60
2022/03/23 00:23:57;;;;;;;16.90;8.80;;;;;;;5.65;61.98;100778.91;5072328;28;20257;-60
2022/03/23 00:26:25;;;;;;;11.10;7.80;;;;;;;5.66;62.04;100785.03;5072283;28;20196;-60
2022/03/23 00:28:52;;;;;;;12.70;8.00;;;;;;;5.75;61.83;100779.78;5072464;28;20295;-60
2022/03/23 00:31:20;;;;;;;14.97;7.50;;;;;;;5.67;61.99;100776.97;5072461;28;20199;-60
2022/03/23 00:33:47;;;;;;;14.13;7.30;;;;;;;5.69;61.75;100790.84;5072718;28;20193;-60
2022/03/23 00:36:15;;;;;;;13.17;6.50;;;;;;;5.75;60.78;100785.06;5072976;28;20192;-60
2022/03/23 00:38:42;;;;;;;12.50;7.03;;;;;;;5.79;61.20;100781.19;5072117;28;20251;-60
2022/03/23 00:41:09;;;;;;;10.23;7.53;;;;;;;5.93;60.82;100781.81;5073213;28;20192;-60
2022/03/23 00:43:37;;;;;;;11.23;8.10;;;;;;;6.01;60.38;100777.53;5072090;28;20678;-61
2022/03/23 00:46:04;;;;;;;15.00;7.87;;;;;;;6.03;60.13;100777.38;5072042;28;20263;-61
2022/03/23 00:48:31;;;;;;;11.17;8.00;;;;;;;6.12;59.91;100771.31;5072277;28;20277;-61
2022/03/23 00:50:58;;;;;;;13.43;8.20;;;;;;;6.12;59.81;100780.03;5072148;28;20587;-61
2022/03/23 00:53:24;;;;;;;11.87;8.17;;;;;;;6.15;59.95;100768.38;5071970;28;20802;-61
2022/03/23 00:55:51;;;;;;;13.10;7.37;;;;;;;6.10;59.03;100773.22;5071905;28;20683;-60
2022/03/23 00:58:18;;;;;;;9.77;7.13;;;;;;;6.00;59.29;100767.94;5072791;28;20193;-60
2022/03/23 01:00:47;;;;;;;8.97;8.07;;;;;;;6.06;58.71;100763.94;5072204;28;20189;-60
2022/03/23 01:03:14;;;;;;;9.60;7.33;;;;;;;5.97;59.13;100757.69;5072997;28;20604;-60
2022/03/23 01:05:41;;;;;;;13.93;8.13;;;;;;;5.89;58.71;100764.59;5072184;28;20575;-60
2022/03/23 01:08:07;;;;;;;10.03;8.27;;;;;;;5.90;58.92;100767.09;5072039;28;20314;-60
2022/03/23 01:10:35;;;;;;;15.77;8.63;;;;;;;5.79;59.18;100760.09;5071764;28;20196;-60
2022/03/23 01:13:02;;;;;;;10.00;7.97;;;;;;;5.50;60.47;100759.19;5072085;28;20187;-60
2022/03/23 01:15:29;;;;;;;16.83;9.87;;;;;;;5.51;60.70;100755.56;5072438;28;20187;-60
2022/03/23 01:17:57;;;;;;;16.40;8.97;;;;;;;5.34;61.45;100764.09;5072053;28;20203;-60
2022/03/23 01:20:24;;;;;;;22.50;9.50;;;;;;;5.34;61.43;100756.19;5071924;28;20279;-60
2022/03/23 01:22:51;;;;;;;23.13;10.10;;;;;;;5.14;62.05;100756.22;5072268;28;20286;-60
2022/03/23 01:25:19;;;;;;;19.50;9.93;;;;;;;5.11;62.00;100752.03;5071652;28;20655;-60
2022/03/23 01:27:46;;;;;;;19.93;10.53;;;;;;;5.13;62.04;100759.81;5071859;28;20205;-60
2022/03/23 01:30:14;;;;;;;14.73;10.37;;;;;;;4.93;62.79;100756.25;5072509;28;20617;-60
2022/03/23 01:32:42;;;;;;;24.87;10.60;;;;;;;4.85;63.18;100761.31;5072412;28;20245;-60
2022/03/23 01:35:11;;;;;;;24.80;10.20;;;;;;;4.72;64.20;100757.22;5071785;28;20575;-60
2022/03/23 01:37:39;;;;;;;19.13;10.37;;;;;;;4.65;64.84;100756.88;5072213;28;20254;-60
2022/03/23 01:40:09;;;;;;;20.60;10.23;;;;;;;4.56;65.19;100755.03;5072119;28;20196;-60
2022/03/23 01:42:35;;;;;;;14.57;9.47;;;;;;;4.45;65.95;100762.97;5071432;28;20218;-60
2022/03/23 01:45:03;;;;;;;19.70;10.17;;;;;;;4.37;65.36;100765.38;5072637;28;20192;-60
2022/03/23 01:47:29;;;;;;;13.90;8.33;;;;;;;4.38;65.02;100755.72;5075569;28;20195;-60
2022/03/23 01:49:57;;;;;;;15.03;9.20;;;;;;;4.39;66.09;100763.47;5076237;28;20298;-60
2022/03/23 01:52:27;;;;;;;14.30;8.67;;;;;;;4.33;65.93;100766.59;5075146;28;20226;-61
2022/03/23 01:54:53;;;;;;;15.17;9.83;;;;;;;4.31;66.60;100759.78;5075615;28;20192;-60
2022/03/23 01:57:22;;;;;;;17.73;9.50;;;;;;;4.25;65.78;100766.38;5075108;28;20285;-60
2022/03/23 01:59:49;;;;;;;20.73;9.47;;;;;;;4.20;66.41;100773.81;5075040;28;20254;-60
2022/03/23 02:02:16;;;;;;;22.17;9.70;;;;;;;4.29;66.56;100767.00;5075522;28;20253;-60
2022/03/23 02:04:43;;;;;;;26.07;10.23;;;;;;;4.22;66.97;100769.28;5074984;28;20196;-61
2022/03/23 02:07:10;;;;;;;21.43;10.57;;;;;;;4.11;67.64;100769.31;5074955;28;20184;-60
2022/03/23 02:09:38;;;;;;;20.47;10.10;;;;;;;4.17;67.00;100774.06;5075084;28;20223;-60
2022/03/23 02:12:08;;;;;;;21.33;10.40;;;;;;;4.28;66.74;100766.16;5075704;28;20615;-60
2022/03/23 02:14:35;;;;;;;15.27;10.43;;;;;;;4.35;66.21;100772.59;5074777;28;20224;-60
2022/03/23 02:17:03;;;;;;;14.17;8.77;;;;;;;4.26;66.76;100768.06;5075688;28;20196;-60
2022/03/23 02:19:30;;;;;;;17.30;9.43;;;;;;;4.08;66.84;100768.69;5074712;28;20199;-60
2022/03/23 02:21:58;;;;;;;16.30;9.40;;;;;;;4.03;68.67;100770.88;5074926;28;20636;-60
2022/03/23 02:24:27;;;;;;;15.70;8.33;;;;;;;4.15;67.16;100765.47;5074728;28;20560;-60
2022/03/23 02:26:54;;;;;;;17.57;8.40;;;;;;;4.27;66.93;100764.47;5074542;28;20732;-60
2022/03/23 02:29:24;;;;;;;14.40;8.77;;;;;;;4.37;67.09;100757.50;5074473;28;20823;-60
2022/03/23 02:31:51;;;;;;;15.27;8.10;;;;;;;4.51;66.29;100762.47;5074451;28;20196;-60
2022/03/23 02:34:19;;;;;;;14.47;8.13;;;;;;;4.52;66.32;100765.91;5074442;28;20656;-60
2022/03/23 02:36:46;;;;;;;12.77;8.50;;;;;;;4.46;66.92;100764.63;5074617;28;20192;-59
2022/03/23 02:39:14;;;;;;;18.43;9.27;;;;;;;4.53;66.65;100765.78;5074306;28;20204;-62
2022/03/23 02:41:41;;;;;;;18.73;9.80;;;;;;;4.49;66.10;100769.66;5075159;28;20188;-60
2022/03/23 02:44:08;;;;;;;20.70;9.40;;;;;;;4.58;66.25;100771.50;5074730;28;20257;-62
2022/03/23 02:46:36;;;;;;;17.03;10.47;;;;;;;4.65;65.52;100769.19;5074439;28;20552;-60
2022/03/23 02:49:03;;;;;;;14.07;9.70;;;;;;;4.63;65.68;100771.13;5074709;28;20230;-61
2022/03/23 02:51:30;;;;;;;15.03;8.90;;;;;;;4.55;66.09;100763.88;5074424;28;20266;-61
2022/03/23 03:02:30;;;;;;;14.90;8.70;;;;;;;4.18;66.42;100774.91;5074093;28;20187;-61
2022/03/23 03:04:56;;;;;;;10.47;8.17;;;;;;;4.12;67.66;100770.13;5073963;28;20954;-62
2022/03/23 03:07:23;;;;;;;11.60;7.93;;;;;;;4.23;67.34;100764.84;5074165;28;20280;-61
2022/03/23 03:09:50;;;;;;;15.30;7.70;;;;;;;4.35;66.93;100769.09;5073635;28;20277;-61
2022/03/23 03:12:18;;;;;;;9.67;8.63;;;;;;;4.33;66.80;100769.22;5074528;28;20200;-61
2022/03/23 03:14:45;;;;;;;13.93;7.63;;;;;;;4.30;67.39;100769.47;5073991;28;20279;-60
2022/03/23 03:17:12;;;;;;;9.40;7.30;;;;;;;4.25;67.14;100765.56;5073916;28;20195;-60
2022/03/23 03:19:39;;;;;;;9.80;6.20;;;;;;;4.24;66.67;100761.25;5073863;28;20253;-60
2022/03/23 03:22:05;;;;;;;11.13;6.30;;;;;;;4.32;67.34;100761.47;5073466;28;20669;-61
2022/03/23 03:24:32;;;;;;;12.63;7.20;;;;;;;4.38;66.56;100751.28;5073462;28;20686;-60
2022/03/23 03:26:59;;;;;;;12.10;7.43;;;;;;;4.39;66.91;100746.84;5073711;28;20269;-60
2022/03/23 03:29:27;;;;;;;11.43;7.00;;;;;;;4.43;67.07;100758.78;5073621;28;20284;-60
2022/03/23 03:31:54;;;;;;;14.17;6.87;;;;;;;4.49;66.71;100758.28;5073897;28;20188;-60
2022/03/23 03:34:21;;;;;;;9.23;6.80;;;;;;;4.41;67.21;100761.53;5073263;28;20660;-60
2022/03/23 03:36:47;;;;;;;13.30;7.27;;;;;;;4.30;66.64;100758.94;5073820;28;20192;-60
2022/03/23 03:39:14;;;;;;;11.33;6.37;;;;;;;4.01;67.17;100752.59;5073103;28;20245;-60
2022/03/23 03:41:41;;;;;;;12.90;6.43;;;;;;;3.99;68.04;100759.78;5073139;28;20656;-60
2022/03/23 03:44:08;;;;;;;14.33;6.67;;;;;;;3.97;68.30;100751.16;5073643;28;20600;-60
2022/03/23 03:46:36;;;;;;;10.20;6.47;;;;;;;3.87;67.81;100755.50;5073808;28;20249;-60
2022/03/23 03:49:03;;;;;;;11.47;6.70;;;;;;;3.73;69.25;100747.91;5072821;28;20216;-60
2022/03/23 03:51:30;;;;;;;9.33;5.70;;;;;;;3.78;68.51;100751.00;5073204;28;20196;-60
2022/03/23 03:53:56;;;;;;;21.40;11.27;;;;;;;3.72;68.87;100748.84;5073150;28;20250;-60
2022/03/23 03:56:23;;;;;;;8.67;6.03;;;;;;;3.74;68.81;100744.31;5073290;28;20199;-60
2022/03/23 03:58:50;;;;;;;9.10;6.13;;;;;;;3.80;69.11;100743.00;5073075;28;20265;-60
2022/03/23 04:01:16;;;;;;;14.73;7.03;;;;;;;3.94;68.72;100753.22;5072994;28;20656;-60
2022/03/23 04:03:44;;;;;;;10.90;6.67;;;;;;;4.00;68.18;100740.41;5073208;28;20496;-60
2022/03/23 04:06:11;;;;;;;14.07;7.47;;;;;;;3.98;67.33;100754.66;5072909;28;20227;-60
2022/03/23 04:08:39;;;;;;;9.37;6.43;;;;;;;4.04;67.96;100748.91;5072192;28;20278;-60
2022/03/23 04:11:05;;;;;;;17.73;9.23;;;;;;;4.11;66.74;100745.66;5072854;28;20637;-61
2022/03/23 04:13:32;;;;;;;12.93;7.67;;;;;;;4.13;66.69;100754.22;5072789;28;20269;-60
2022/03/23 04:15:59;;;;;;;11.93;7.77;;;;;;;4.16;66.53;100751.38;5072951;28;20691;-60
2022/03/23 04:18:26;;;;;;;16.17;8.57;;;;;;;4.17;66.51;100758.28;5072713;28;20249;-60
2022/03/23 04:20:54;;;;;;;13.27;7.63;;;;;;;4.10;66.77;100762.38;5073137;28;20188;-60
2022/03/23 04:23:20;;;;;;;14.93;7.50;;;;;;;4.14;66.23;100758.56;5072420;28;20192;-60
2022/03/23 04:25:47;;;;;;;16.00;7.77;;;;;;;4.22;66.83;100764.03;5072318;28;20196;-60
2022/03/23 04:28:14;;;;;;;15.70;7.73;;;;;;;4.25;66.06;100762.94;5072492;28;20199;-60
2022/03/23 04:30:41;;;;;;;13.10;7.03;;;;;;;4.32;65.67;100761.47;5072129;28;20276;-60
2022/03/23 04:33:08;;;;;;;9.93;7.40;;;;;;;4.44;65.75;100766.56;5073327;28;20217;-60
2022/03/23 04:35:35;;;;;;;12.33;8.00;;;;;;;4.56;65.22;100770.81;5072424;28;20250;-60
2022/03/23 04:38:03;;;;;;;12.60;6.93;;;;;;;4.65;64.57;100764.78;5072360;28;20196;-60
2022/03/23 04:40:30;;;;;;;14.13;7.07;;;;;;;4.79;63.82;100771.53;5072434;28;20232;-60
2022/03/23 04:42:57;;;;;;;9.00;6.40;;;;;;;4.68;64.20;100769.81;5072107;28;20191;-60
2022/03/23 04:45:24;;;;;;;9.93;6.50;;;;;;;4.70;63.31;100767.88;5072385;28;20254;-60
2022/03/23 04:47:50;;;;;;;11.50;6.40;;;;;;;4.95;63.01;100767.47;5072206;28;20241;-60
2022/03/23 04:50:17;;;;;;;9.40;7.27;;;;;;;5.36;60.66;100770.06;5072439;28;20281;-60
2022/03/23 04:52:45;;;;;;;11.63;7.37;;;;;;;5.87;59.84;100767.34;5072211;28;20249;-60
2022/03/23 04:55:16;;;;;;;17.77;9.90;;;;;;;6.25;58.34;100772.69;5078457;28;20199;-61
2022/03/23 04:57:43;;;;;;;19.37;7.03;;;;;;;6.82;57.26;100769.25;5092202;28;20728;-60
2022/03/23 05:00:13;;;;;;;17.57;7.20;;;;;;;7.37;53.68;100773.69;5092104;28;20210;-60
2022/03/23 05:02:40;;;;;;;15.27;7.37;;;;;;;7.86;52.91;100786.56;5092123;28;20669;-60
2022/03/23 05:05:08;;;;;;;12.20;6.63;;;;;;;8.38;49.93;100778.72;5091829;28;20774;-60
2022/03/23 05:07:36;;;;;;;12.77;7.30;;;;;;;8.83;49.40;100778.66;5092367;28;20186;-59
2022/03/23 05:10:03;;;;;;;8.40;6.27;;;;;;;9.21;46.33;100786.22;5092973;28;20215;-60
2022/03/23 05:12:31;;;;;;;10.07;6.00;;;;;;;9.37;45.81;100783.66;5092164;28;20193;-59
2022/03/23 05:14:58;;;;;;;11.63;6.73;;;;;;;9.68;44.68;100792.78;5091858;28;20650;-59
2022/03/23 05:17:25;;;;;;;11.63;6.90;;;;;;;10.12;43.24;100792.50;5091633;28;20651;-60
2022/03/23 05:19:51;;;;;;;11.00;6.23;;;;;;;10.33;41.47;100792.03;5094886;28;20283;-60
2022/03/23 05:22:18;;;;;;;7.80;7.03;;;;;;;10.14;41.41;100784.38;5097036;28;20260;-60
2022/03/23 05:24:45;;;;;;;20.73;10.10;;;;;;;9.68;41.93;100782.19;5096189;28;20191;-60
2022/03/23 05:27:11;;;;;;;28.93;13.30;;;;;;;9.73;41.68;100782.53;5095811;28;20245;-60
2022/03/23 05:29:40;;;;;;;25.57;13.30;;;;;;;9.55;42.01;100785.25;5096004;28;20705;-60
2022/03/23 05:32:07;;;;;;;35.43;16.33;;;;;;;9.77;42.09;100794.50;5096874;28;20195;-61
2022/03/23 05:34:34;;;;;;;47.10;20.70;;;;;;;10.08;41.74;100785.00;5095682;28;20247;-60
2022/03/23 05:37:01;;;;;;;23.20;13.27;;;;;;;10.57;39.52;100803.56;5096242;28;20191;-60
2022/03/23 05:39:27;;;;;;;26.97;11.27;;;;;;;10.81;39.73;100794.75;5096064;28;20194;-61
2022/03/23 05:41:54;;;;;;;11.37;9.40;;;;;;;10.97;38.98;100792.09;5095858;28;20208;-59
2022/03/23 05:44:21;;;;;;;17.07;8.63;;;;;;;11.17;39.04;100801.41;5096114;28;20188;-59
2022/03/23 05:46:49;;;;;;;19.27;7.67;;;;;;;11.33;39.53;100809.38;5095998;28;20188;-61
2022/03/23 05:49:16;;;;;;;9.53;7.57;;;;;;;11.89;37.98;100803.94;5095696;28;20217;-61
2022/03/23 05:51:42;;;;;;;21.77;8.87;;;;;;;11.84;38.45;100808.09;5095725;28;20190;-60
2022/03/23 05:54:09;;;;;;;20.87;9.00;;;;;;;11.83;38.12;100812.59;5096029;28;20232;-60
2022/03/23 05:56:36;;;;;;;14.30;8.53;;;;;;;11.22;39.19;100809.69;5095297;28;20241;-60
2022/03/23 05:59:02;;;;;;;11.07;7.20;;;;;;;11.04;39.48;100806.41;5095053;28;20725;-60
2022/03/23 06:01:31;;;;;;;11.40;8.27;;;;;;;11.08;39.63;100802.41;5094996;28;20192;-59
2022/03/23 06:03:59;;;;;;;15.40;10.10;;;;;;;10.73;40.78;100802.72;5095465;28;20242;-59
2022/03/23 06:06:25;;;;;;;18.97;9.73;;;;;;;10.68;41.03;100805.06;5095446;28;20224;-60
2022/03/23 06:08:52;;;;;;;17.33;9.93;;;;;;;10.72;41.11;100804.56;5095261;28;20264;-59
2022/03/23 06:11:19;;;;;;;27.33;9.77;;;;;;;11.05;41.92;100789.44;5095162;28;20223;-60
2022/03/23 06:13:46;;;;;;;20.13;6.97;;;;;;;12.02;48.86;100803.34;5094858;28;20556;-59
2022/03/23 06:16:12;;;;;;;14.57;8.93;;;;;;;13.14;38.34;100806.13;5095447;28;20194;-61
2022/03/23 06:18:40;;;;;;;11.57;7.90;;;;;;;13.79;35.78;100809.78;5094854;28;20228;-61
2022/03/23 06:21:09;;;;;;;11.33;5.93;;;;;;;14.49;35.20;100807.41;5095939;28;20278;-62
2022/03/23 06:23:35;;;;;;;11.00;5.77;;;;;;;14.79;35.12;100809.78;5094618;28;20670;-62
2022/03/23 06:26:04;;;;;;;15.50;5.50;;;;;;;15.36;33.45;100805.16;5095241;28;20207;-61
2022/03/23 06:28:31;;;;;;;11.82;6.07;;;;;;;14.85;31.83;100805.50;5094037;28;20927;-62
2022/03/23 06:30:59;;;;;;;10.40;5.73;;;;;;;14.58;32.50;100800.94;5093809;28;20218;-62
2022/03/23 06:33:25;;;;;;;8.23;5.63;;;;;;;14.61;32.07;100809.41;5085445;28;20196;-63
2022/03/23 06:35:52;;;;;;;5.50;4.30;;;;;;;15.54;43.81;100794.81;5074477;28;20675;-66
2022/03/23 06:38:20;;;;;;;13.47;5.20;;;;;;;15.73;30.92;100803.97;5074447;28;20254;-63
2022/03/23 06:40:47;;;;;;;11.87;5.40;;;;;;;15.46;33.63;100800.31;5082516;28;20196;-63
2022/03/23 06:43:14;;;;;;;10.57;5.50;;;;;;;14.90;32.70;100790.53;5094865;28;20260;-63
2022/03/23 06:45:42;;;;;;;9.60;5.90;;;;;;;14.51;32.59;100798.19;5094376;28;20655;-62
2022/03/23 06:48:10;;;;;;;12.53;8.33;;;;;;;14.82;32.70;100801.38;5094370;28;20199;-63
2022/03/23 06:50:37;;;;;;;6.97;5.70;;;;;;;14.90;32.17;100801.25;5075982;28;20269;-62
2022/03/23 06:53:04;;;;;;;10.17;5.87;;;;;;;14.80;32.25;100800.75;5074366;28;20188;-65
2022/03/23 06:55:32;;;;;;;6.47;5.23;;;;;;;14.96;35.24;100784.41;5073952;28;20663;-64
2022/03/23 06:57:58;;;;;;;6.77;5.47;;;;;;;15.68;31.85;100796.53;5074173;28;20713;-64
2022/03/23 07:00:25;;;;;;;10.70;6.63;;;;;;;15.58;31.49;100795.22;5073965;28;20253;-64
2022/03/23 07:02:52;;;;;;;8.00;5.13;;;;;;;15.34;31.31;100796.50;5074088;28;20203;-63
2022/03/23 07:05:20;;;;;;;9.80;5.07;;;;;;;15.88;30.55;100794.78;5073920;28;20277;-63
2022/03/23 07:10:34;;;;;;;11.00;4.20;;;;;;;16.02;29.99;100787.63;5094086;28;20263;-63
2022/03/23 07:13:02;;;;;;;9.40;4.97;;;;;;;15.33;30.34;100788.63;5093678;28;20663;-63
2022/03/23 07:15:29;;;;;;;5.83;4.03;;;;;;;15.12;31.45;100789.50;5094323;28;20192;-63
2022/03/23 07:17:55;;;;;;;6.80;3.73;;;;;;;15.07;32.30;100778.53;5093928;28;20264;-63
2022/03/23 07:20:23;;;;;;;7.13;3.67;;;;;;;15.86;31.13;100787.97;5092943;28;20218;-67
2022/03/23 07:22:49;;;;;;;7.87;4.00;;;;;;;16.67;32.27;100784.34;5076854;28;20205;-63
2022/03/23 07:25:17;;;;;;;43.83;14.00;;;;;;;16.59;28.47;100787.22;5073491;28;20675;-64
2022/03/23 07:27:45;;;;;;;6.40;3.80;;;;;;;16.30;28.76;100790.22;5073440;28;20196;-64
2022/03/23 07:30:12;;;;;;;6.50;3.63;;;;;;;16.30;30.54;100785.69;5072914;28;20699;-64
2022/03/23 07:32:39;;;;;;;3.40;3.10;;;;;;;16.23;29.09;100781.31;5073369;28;20198;-64
2022/03/23 07:35:07;;;;;;;4.13;3.73;;;;;;;16.35;29.37;100777.88;5089021;28;20234;-63
2022/03/23 07:37:34;;;;;;;4.43;3.30;;;;;;;16.56;28.71;100785.78;5091774;28;20203;-64
2022/03/23 07:40:01;;;;;;;5.00;3.80;;;;;;;16.48;29.04;100793.19;5076112;28;20546;-62
2022/03/23 07:42:27;;;;;;;7.63;3.40;;;;;;;16.78;30.76;100783.78;5092654;28;20197;-63
2022/03/23 07:44:55;;;;;;;4.40;3.73;;;;;;;16.74;27.71;100779.84;5093331;28;20258;-63
2022/03/23 07:47:22;;;;;;;19.07;5.03;;;;;;;16.55;27.81;100788.66;5093016;28;20638;-62
2022/03/23 07:49:49;;;;;;;5.87;3.40;;;;;;;16.01;29.96;100779.78;5093094;28;20219;-63
2022/03/23 07:52:16;;;;;;;3.37;2.93;;;;;;;16.02;32.15;100772.38;5093302;28;20187;-63
2022/03/23 07:54:42;;;;;;;3.50;2.50;;;;;;;16.37;28.10;100774.97;5090958;28;20187;-63
2022/03/23 07:57:09;;;;;;;5.87;3.20;;;;;;;16.23;27.68;100773.28;5072874;28;20559;-65
2022/03/23 07:59:36;;;;;;;3.27;2.93;;;;;;;16.11;28.43;100769.50;5072914;28;20191;-64
2022/03/23 08:02:04;;;;;;;13.07;3.00;;;;;;;15.65;27.66;100764.75;5072548;28;20663;-66
2022/03/23 08:04:32;;;;;;;3.23;2.77;;;;;;;15.82;27.39;100760.72;5072416;28;20542;-64
2022/03/23 08:07:00;;;;;;;3.03;2.80;;;;;;;15.79;28.26;100755.78;5073644;28;20227;-64
2022/03/23 08:09:27;;;;;;;5.97;2.53;;;;;;;15.83;27.78;100766.91;5072403;28;20188;-64
2022/03/23 08:11:54;;;;;;;6.20;3.00;;;;;;;16.19;27.44;100758.63;5072333;28;20780;-64
2022/03/23 08:14:21;;;;;;;3.43;2.60;;;;;;;16.49;27.06;100754.63;5072713;28;20188;-65
2022/03/23 08:16:47;;;;;;;3.07;2.77;;;;;;;16.87;27.25;100744.97;5072446;28;20648;-64
2022/03/23 08:19:15;;;;;;;2.63;2.43;;;;;;;16.31;26.33;100749.78;5072647;28;20249;-64
2022/03/23 08:21:42;;;;;;;4.03;2.33;;;;;;;16.40;26.52;100756.63;5072256;28;20196;-64
2022/03/23 08:24:09;;;;;;;44.07;10.17;;;;;;;16.35;26.63;100755.56;5072591;28;20192;-63
2022/03/23 08:26:36;;;;;;;3.20;2.80;;;;;;;16.49;25.97;100751.94;5072382;28;20572;-64
2022/03/23 08:29:02;;;;;;;97.07;8.30;;;;;;;16.94;25.46;100751.16;5075668;28;20225;-64
2022/03/23 08:31:29;;;;;;;26.50;4.60;;;;;;;17.32;26.04;100744.09;5092412;28;20215;-65
2022/03/23 08:33:56;;;;;;;2.63;2.43;;;;;;;17.24;24.64;100742.47;5091902;28;20207;-65
2022/03/23 08:36:24;;;;;;;3.83;3.43;;;;;;;17.07;24.81;100756.53;5092706;28;20221;-66
2022/03/23 08:38:51;;;;;;;14.20;3.50;;;;;;;17.05;24.92;100742.47;5075424;28;20246;-62
2022/03/23 08:41:18;;;;;;;5.23;3.17;;;;;;;17.41;25.50;100741.03;5086955;28;20199;-64
2022/03/23 08:43:45;;;;;;;4.33;2.63;;;;;;;17.97;24.60;100738.56;5092167;28;20198;-63
2022/03/23 08:46:13;;;;;;;3.53;2.60;;;;;;;18.56;24.15;100744.47;5092314;28;20733;-64
2022/03/23 08:48:40;;;;;;;3.37;2.00;;;;;;;18.96;23.45;100749.38;5092233;28;20282;-64
2022/03/23 08:51:07;;;;;;;3.67;2.67;;;;;;;19.19;23.37;100751.47;5092359;28;20278;-64
2022/03/23 08:53:38;;;;;;;2.70;2.53;;;;;;;19.43;22.65;100746.06;5092225;28;20250;-64
2022/03/23 08:56:08;;;;;;;4.10;2.87;;;;;;;19.62;22.23;100736.09;5084025;28;20248;-64
2022/03/23 08:58:35;;;;;;;2.43;2.23;;;;;;;19.64;21.37;100736.72;5071940;28;20692;-64
2022/03/23 09:01:01;;;;;;;2.10;2.00;;;;;;;19.33;21.54;100736.84;5072211;28;20195;-63
2022/03/23 09:03:28;;;;;;;3.07;2.43;;;;;;;19.38;21.22;100735.13;5071736;28;20197;-63
2022/03/23 09:05:55;;;;;;;4.30;2.50;;;;;;;19.29;21.75;100735.63;5072175;28;20241;-63
2022/03/23 09:08:21;;;;;;;4.87;2.60;;;;;;;19.28;21.90;100734.78;5072071;28;20195;-63
2022/03/23 09:10:49;;;;;;;6.30;2.70;;;;;;;19.09;21.83;100741.16;5085460;28;20261;-64
2022/03/23 09:13:16;;;;;;;4.30;2.70;;;;;;;18.95;22.14;100728.03;5092503;28;20251;-63
2022/03/23 09:15:43;;;;;;;2.47;2.27;;;;;;;18.68;21.95;100726.59;5091793;28;20197;-63
2022/03/23 09:18:10;;;;;;;4.30;2.80;;;;;;;18.44;22.42;100725.53;5091840;28;20734;-64
2022/03/23 09:20:37;;;;;;;3.30;2.47;;;;;;;18.69;22.34;100728.22;5092182;28;20221;-65
2022/03/23 09:23:04;;;;;;;2.80;2.60;;;;;;;18.70;21.63;100719.13;5085648;28;20196;-64
2022/03/23 09:25:31;;;;;;;3.27;2.83;;;;;;;18.90;21.33;100720.63;5072396;28;20193;-65
2022/03/23 09:27:59;;;;;;;12.13;3.73;;;;;;;18.84;21.74;100715.28;5071919;28;20203;-65
2022/03/23 09:30:26;;;;;;;4.57;2.80;;;;;;;18.70;22.19;100705.69;5071365;28;20307;-64
2022/03/23 09:32:53;;;;;;;6.70;2.73;;;;;;;18.73;23.96;100702.53;5071322;28;20192;-63
2022/03/23 09:35:19;;;;;;;6.47;2.60;;;;;;;18.69;25.49;100701.31;5071375;28;20752;-66
2022/03/23 09:37:49;;;;;;;3.37;2.80;;;;;;;18.80;25.03;100703.31;5088835;28;20199;-67
2022/03/23 09:40:18;;;;;;;3.53;2.40;;;;;;;18.77;27.31;100692.97;5091496;28;20208;-66
2022/03/23 09:42:46;;;;;;;7.00;3.50;;;;;;;18.87;23.19;100693.31;5091672;28;20262;-65
2022/03/23 09:45:21;;;;;;;4.57;2.63;;;;;;;18.68;23.21;100695.13;5091659;28;20227;-65
2022/03/23 09:47:48;;;;;;;4.60;2.63;;;;;;;18.99;22.86;100697.75;5092515;28;20179;-65
2022/03/23 09:50:15;;;;;;;4.33;2.80;;;;;;;18.78;22.55;100700.03;5091727;28;20193;-65
2022/03/23 09:52:41;;;;;;;4.07;2.50;;;;;;;18.80;23.20;100697.91;5091813;28;20191;-63
2022/03/23 09:55:09;;;;;;;3.03;2.73;;;;;;;19.38;26.32;100696.56;5083709;28;20248;-65
2022/03/23 09:57:37;;;;;;;3.80;3.30;;;;;;;19.98;26.79;100682.94;5071631;28;20195;-65
2022/03/23 10:00:08;;;;;;;38.63;26.53;;;;;;;20.27;24.08;100689.44;5071193;28;20750;-65
2022/03/23 10:03:22;;;;;;;61.87;20.97;;;;;;;20.29;21.91;100688.16;5071573;28;20365;-66
2022/03/23 10:06:44;;;;;;;109.07;63.53;;;;;;;19.72;20.99;100693.25;5066246;28;20231;-65
2022/03/23 10:09:35;;;;;;;92.50;59.90;;;;;;;19.53;23.12;100688.94;5033021;28;20188;-66
2022/03/23 10:12:39;;;;;;;36.63;24.43;;;;;;;20.28;23.49;100677.59;5074996;28;20304;-62
2022/03/23 10:15:44;;;;;;;19.83;16.03;;;;;;;20.95;24.92;100668.25;5074591;28;20196;-63
2022/03/23 10:18:51;;;;;;;9.93;8.90;;;;;;;20.43;21.67;100669.91;5057151;28;20196;-63
2022/03/23 10:21:18;;;;;;;24.17;20.13;;;;;;;19.94;27.42;100673.66;5069903;28;20200;-63
2022/03/23 10:24:15;;;;;;;38.50;24.47;;;;;;;20.47;31.42;100639.50;5074810;28;20257;-62
2022/03/23 10:26:42;;;;;;;9.40;7.10;;;;;;;20.38;24.63;100645.47;5074355;28;20192;-62
2022/03/23 10:29:20;;;;;;;8.70;7.80;;;;;;;20.37;22.41;100654.59;5078040;28;20639;-62
2022/03/23 10:31:47;;;;;;;19.43;13.83;;;;;;;19.99;23.91;100646.03;5074231;28;20683;-64
2022/03/23 10:34:14;;;;;;;17.00;10.70;;;;;;;20.37;25.82;100647.34;5074737;28;20566;-63
2022/03/23 10:36:51;;;;;;;10.53;7.73;;;;;;;20.43;23.73;100649.09;5080876;28;20202;-65
2022/03/23 10:39:28;;;;;;;10.77;5.93;;;;;;;20.80;23.09;100638.97;5095087;28;20280;-65
2022/03/23 10:41:58;;;;;;;4.93;4.50;;;;;;;20.31;23.52;100629.38;5094346;28;20659;-64
2022/03/23 10:44:25;;;;;;;3.23;2.93;;;;;;;20.51;21.41;100634.47;5094742;28;20262;-64
2022/03/23 10:46:51;;;;;;;5.43;4.90;;;;;;;20.71;22.61;100624.16;5094610;28;20195;-64
2022/03/23 10:49:20;;;;;;;3.50;3.20;;;;;;;20.89;20.43;100628.59;5094306;28;20252;-64
2022/03/23 10:51:47;;;;;;;5.80;3.70;;;;;;;20.76;21.74;100628.84;5094017;28;20223;-64
2022/03/23 10:54:15;;;;;;;2.97;2.77;;;;;;;20.89;22.50;100615.94;5094506;28;20191;-65
2022/03/23 10:56:44;;;;;;;2.57;2.37;;;;;;;21.11;21.69;100613.50;5081106;28;20625;-65
2022/03/23 10:59:25;;;;;;;3.90;2.30;;;;;;;21.13;19.37;100612.19;5074292;28;20241;-65
2022/03/23 11:02:00;;;;;;;11.47;2.30;;;;;;;20.96;19.27;100605.03;5087776;28;20279;-67
2022/03/23 11:04:29;;;;;;;3.90;2.50;;;;;;;20.48;19.00;100610.63;5093012;28;20190;-66
2022/03/23 11:06:58;;;;;;;3.20;1.97;;;;;;;19.53;19.71;100592.69;5094440;28;20249;-66
2022/03/23 11:18:07;;;;;;;3.30;2.10;;;;;;;17.85;20.73;100582.47;5093747;28;20740;-66
2022/03/23 11:20:41;;;;;;;2.40;2.20;;;;;;;18.05;21.10;100583.16;5094205;28;20189;-67
2022/03/23 11:23:17;;;;;;;6.27;2.70;;;;;;;18.24;20.96;100576.00;5087027;28;20241;-66
2022/03/23 11:25:45;;;;;;;9.37;3.10;;;;;;;18.16;21.30;100571.72;5073812;28;20186;-67
2022/03/23 11:28:14;;;;;;;6.13;2.57;;;;;;;18.13;20.16;100572.16;5074363;28;20224;-66
2022/03/23 11:30:41;;;;;;;3.63;2.33;;;;;;;18.40;19.90;100567.41;5073724;28;20200;-66
2022/03/23 11:33:10;;;;;;;3.20;2.33;;;;;;;18.34;20.01;100568.31;5080827;28;20729;-66
2022/03/23 11:35:38;;;;;;;8.73;2.50;;;;;;;18.03;20.06;100565.63;5073514;28;20671;-66
2022/03/23 11:38:10;;;;;;;3.40;2.00;;;;;;;18.04;20.83;100561.88;5073103;28;20192;-66
2022/03/23 11:40:37;;;;;;;5.13;2.10;;;;;;;18.12;20.72;100557.06;5081616;28;20242;-66
2022/03/23 11:43:03;;;;;;;2.17;2.07;;;;;;;18.04;20.46;100551.94;5093669;28;20249;-66
2022/03/23 11:45:31;;;;;;;6.97;2.23;;;;;;;18.16;20.53;100544.81;5093798;28;20191;-66
2022/03/23 11:48:08;;;;;;;2.50;2.30;;;;;;;18.29;20.03;100539.34;5093073;28;20260;-66
2022/03/23 11:50:48;;;;;;;7.57;2.30;;;;;;;18.37;20.27;100546.31;5093191;28;20716;-66